sensor_id;sensor_type;location;lat;lon;timestamp;pressure;altitude;pressure_sealevel;temperature;humidity
76637;BME280;65532;52.124;5.480;2023-04-24T00:00:32;99812.91;;;8.57;27.87
76637;BME280;65532;52.124;5.480;2023-04-24T00:02:59;99805.06;;;8.56;26.39
76637;BME280;65532;52.124;5.480;2023-04-24T00:05:25;99816.09;;;8.54;24.81
76637;BME280;65532;52.124;5.480;2023-04-24T00:07:52;99806.13;;;8.55;24.68
76637;BME280;65532;52.124;5.480;2023-04-24T00:10:18;99814.78;;;8.57;21.86
76637;BME280;65532;52.124;5.480;2023-04-24T00:12:45;99823.69;;;8.57;22.49
76637;BME280;65532;52.124;5.480;2023-04-24T00:15:12;99824.19;;;8.54;20.64
76637;BME280;65532;52.124;5.480;2023-04-24T00:17:38;99823.38;;;8.54;19.76
76637;BME280;65532;52.124;5.480;2023-04-24T00:20:05;99826.88;;;8.54;17.28
76637;BME280;65532;52.124;5.480;2023-04-24T00:22:33;99829.59;;;8.54;15.00
76637;BME280;65532;52.124;5.480;2023-04-24T00:24:59;99834.16;;;8.54;13.47
76637;BME280;65532;52.124;5.480;2023-04-24T00:27:26;99834.97;;;8.54;18.52
76637;BME280;65532;52.124;5.480;2023-04-24T00:29:52;99831.22;;;8.55;15.06
76637;BME280;65532;52.124;5.480;2023-04-24T00:32:19;99831.72;;;8.52;12.85
76637;BME280;65532;52.124;5.480;2023-04-24T00:34:47;99830.03;;;8.51;12.20
76637;BME280;65532;52.124;5.480;2023-04-24T00:37:13;99830.88;;;8.52;16.02
76637;BME280;65532;52.124;5.480;2023-04-24T00:39:43;99837.91;;;8.53;13.84
76637;BME280;65532;52.124;5.480;2023-04-24T00:42:10;99830.53;;;8.48;12.79
76637;BME280;65532;52.124;5.480;2023-04-24T00:44:37;99831.03;;;8.45;12.33
76637;BME280;65532;52.124;5.480;2023-04-24T00:47:04;99835.59;;;8.45;12.72
76637;BME280;65532;52.124;5.480;2023-04-24T00:49:30;99845.00;;;8.42;12.72
76637;BME280;65532;52.124;5.480;2023-04-24T00:51:56;99843.94;;;8.43;8.23
76637;BME280;65532;52.124;5.480;2023-04-24T00:54:25;99854.72;;;8.43;8.65
76637;BME280;65532;52.124;5.480;2023-04-24T00:56:52;99849.34;;;8.43;8.20
76637;BME280;65532;52.124;5.480;2023-04-24T00:59:18;99847.69;;;8.42;6.67
76637;BME280;65532;52.124;5.480;2023-04-24T01:01:45;99853.09;;;8.42;6.59
76637;BME280;65532;52.124;5.480;2023-04-24T01:04:12;99854.41;;;8.39;7.62
76637;BME280;65532;52.124;5.480;2023-04-24T01:06:42;99853.59;;;8.39;8.61
76637;BME280;65532;52.124;5.480;2023-04-24T01:09:10;99854.41;;;8.39;9.09
76637;BME280;65532;52.124;5.480;2023-04-24T01:11:38;99860.63;;;8.40;7.51
76637;BME280;65532;52.124;5.480;2023-04-24T01:14:04;99858.16;;;8.38;4.96
76637;BME280;65532;52.124;5.480;2023-04-24T01:16:31;99855.22;;;8.40;2.51
76637;BME280;65532;52.124;5.480;2023-04-24T01:18:57;99861.44;;;8.40;3.12
76637;BME280;65532;52.124;5.480;2023-04-24T01:21:26;99862.25;;;8.41;4.67
76637;BME280;65532;52.124;5.480;2023-04-24T01:23:54;99866.56;;;8.42;5.64
76637;BME280;65532;52.124;5.480;2023-04-24T01:26:21;99871.97;;;8.42;7.03
76637;BME280;65532;52.124;5.480;2023-04-24T01:28:48;99871.97;;;8.42;7.95
76637;BME280;65532;52.124;5.480;2023-04-24T01:31:15;99873.59;;;8.43;7.39
76637;BME280;65532;52.124;5.480;2023-04-24T01:33:42;99874.66;;;8.42;6.05
76637;BME280;65532;52.124;5.480;2023-04-24T01:36:12;99870.91;;;8.43;5.58
76637;BME280;65532;52.124;5.480;2023-04-24T01:38:39;99871.72;;;8.44;5.50
76637;BME280;65532;52.124;5.480;2023-04-24T01:41:06;99870.09;;;8.43;5.42
76637;BME280;65532;52.124;5.480;2023-04-24T01:43:32;99873.38;;;8.45;3.96
76637;BME280;65532;52.124;5.480;2023-04-24T01:45:59;99871.47;;;8.45;2.32
76637;BME280;65532;52.124;5.480;2023-04-24T01:48:25;99870.44;;;8.46;0.82
76637;BME280;65532;52.124;5.480;2023-04-24T01:50:52;99874.50;;;8.49;0.00
76637;BME280;65532;52.124;5.480;2023-04-24T01:53:19;99877.78;;;8.51;0.00
76637;BME280;65532;52.124;5.480;2023-04-24T01:55:46;99882.97;;;8.52;0.00
76637;BME280;65532;52.124;5.480;2023-04-24T01:58:12;99875.69;;;8.53;0.00
76637;BME280;65532;52.124;5.480;2023-04-24T02:00:39;99876.50;;;8.53;0.00
76637;BME280;65532;52.124;5.480;2023-04-24T02:03:06;99877.31;;;8.54;0.00
76637;BME280;65532;52.124;5.480;2023-04-24T02:05:32;99872.75;;;8.54;0.00
76637;BME280;65532;52.124;5.480;2023-04-24T02:08:01;99871.94;;;8.54;0.00
76637;BME280;65532;52.124;5.480;2023-04-24T02:10:28;99874.88;;;8.52;0.00
76637;BME280;65532;52.124;5.480;2023-04-24T02:12:54;99877.56;;;8.52;0.00
76637;BME280;65532;52.124;5.480;2023-04-24T02:15:23;99876.97;;;8.50;0.00
76637;BME280;65532;52.124;5.480;2023-04-24T02:17:49;99872.38;;;8.51;0.00
76637;BME280;65532;52.124;5.480;2023-04-24T02:20:16;99876.16;;;8.50;0.00
76637;BME280;65532;52.124;5.480;2023-04-24T02:22:43;99876.16;;;8.50;0.00
76637;BME280;65532;52.124;5.480;2023-04-24T02:25:10;99879.91;;;8.49;0.00
76637;BME280;65532;52.124;5.480;2023-04-24T02:27:36;99872.38;;;8.51;0.00
76637;BME280;65532;52.124;5.480;2023-04-24T02:30:05;99879.66;;;8.50;0.00
76637;BME280;65532;52.124;5.480;2023-04-24T02:32:32;99867.25;;;8.49;0.00
76637;BME280;65532;52.124;5.480;2023-04-24T02:34:58;99872.63;;;8.49;0.00
76637;BME280;65532;52.124;5.480;2023-04-24T02:37:25;99872.63;;;8.49;0.00
76637;BME280;65532;52.124;5.480;2023-04-24T02:39:52;99875.34;;;8.49;0.00
76637;BME280;65532;52.124;5.480;2023-04-24T02:42:18;99878.84;;;8.50;0.00
76637;BME280;65532;52.124;5.480;2023-04-24T02:44:45;99875.56;;;8.48;0.00
76637;BME280;65532;52.124;5.480;2023-04-24T02:47:11;99886.94;;;8.50;0.00
76637;BME280;65532;52.124;5.480;2023-04-24T02:49:38;99875.34;;;8.49;0.00
76637;BME280;65532;52.124;5.480;2023-04-24T02:52:04;99873.44;;;8.50;0.00
76637;BME280;65532;52.124;5.480;2023-04-24T02:54:31;99871.56;;;8.50;0.00
76637;BME280;65532;52.124;5.480;2023-04-24T02:56:57;99875.09;;;8.51;0.00
76637;BME280;65532;52.124;5.480;2023-04-24T02:59:24;99873.44;;;8.50;0.00
76637;BME280;65532;52.124;5.480;2023-04-24T03:01:53;99876.16;;;8.50;0.00
76637;BME280;65532;52.124;5.480;2023-04-24T03:04:19;99869.94;;;8.49;0.00
76637;BME280;65532;52.124;5.480;2023-04-24T03:06:47;99868.88;;;8.50;0.00
76637;BME280;65532;52.124;5.480;2023-04-24T03:09:13;99869.13;;;8.49;0.00
76637;BME280;65532;52.124;5.480;2023-04-24T03:11:40;99868.06;;;8.50;0.00
76637;BME280;65532;52.124;5.480;2023-04-24T03:14:07;99865.84;;;8.47;0.00
76637;BME280;65532;52.124;5.480;2023-04-24T03:16:34;99866.66;;;8.47;0.00
76637;BME280;65532;52.124;5.480;2023-04-24T03:19:00;99876.63;;;8.47;0.00
76637;BME280;65532;52.124;5.480;2023-04-24T03:21:30;99877.44;;;8.47;0.00
76637;BME280;65532;52.124;5.480;2023-04-24T03:23:57;99875.81;;;8.46;0.00
76637;BME280;65532;52.124;5.480;2023-04-24T03:26:24;99877.69;;;8.46;0.00
76637;BME280;65532;52.124;5.480;2023-04-24T03:29:03;99879.56;;;8.45;0.00
76637;BME280;65532;52.124;5.480;2023-04-24T03:31:29;99877.94;;;8.44;0.00
76637;BME280;65532;52.124;5.480;2023-04-24T03:33:56;99876.31;;;8.43;0.00
76637;BME280;65532;52.124;5.480;2023-04-24T03:36:24;99883.34;;;8.44;0.00
76637;BME280;65532;52.124;5.480;2023-04-24T03:38:53;99881.69;;;8.43;0.00
76637;BME280;65532;52.124;5.480;2023-04-24T03:41:31;99884.97;;;8.45;0.00
76637;BME280;65532;52.124;5.480;2023-04-24T03:44:07;99882.28;;;8.45;0.00
76637;BME280;65532;52.124;5.480;2023-04-24T03:46:35;99888.25;;;8.47;0.00
76637;BME280;65532;52.124;5.480;2023-04-24T03:49:01;99886.59;;;8.46;0.00
76637;BME280;65532;52.124;5.480;2023-04-24T03:51:33;99885.31;;;8.49;0.00
76637;BME280;65532;52.124;5.480;2023-04-24T03:54:12;99885.31;;;8.49;0.00
76637;BME280;65532;52.124;5.480;2023-04-24T03:56:40;99882.34;;;8.50;0.00
76637;BME280;65532;52.124;5.480;2023-04-24T03:59:06;99875.91;;;8.51;0.00
76637;BME280;65532;52.124;5.480;2023-04-24T04:01:35;99887.75;;;8.50;0.00
76637;BME280;65532;52.124;5.480;2023-04-24T04:04:09;99886.13;;;8.49;0.00
76637;BME280;65532;52.124;5.480;2023-04-24T04:06:37;99890.69;;;8.49;0.00
76637;BME280;65532;52.124;5.480;2023-04-24T04:09:04;99889.88;;;8.48;0.00
76637;BME280;65532;52.124;5.480;2023-04-24T04:11:30;99897.41;;;8.46;0.00
76637;BME280;65532;52.124;5.480;2023-04-24T04:13:57;99896.81;;;8.44;0.00
76637;BME280;65532;52.124;5.480;2023-04-24T04:16:24;99903.28;;;8.43;0.00
76637;BME280;65532;52.124;5.480;2023-04-24T04:18:55;99903.28;;;8.43;0.00
76637;BME280;65532;52.124;5.480;2023-04-24T04:21:22;99899.53;;;8.44;0.00
76637;BME280;65532;52.124;5.480;2023-04-24T04:23:53;99902.22;;;8.44;0.00
76637;BME280;65532;52.124;5.480;2023-04-24T04:26:26;99904.66;;;8.46;0.00
76637;BME280;65532;52.124;5.480;2023-04-24T04:29:01;99909.00;;;8.47;0.00
76637;BME280;65532;52.124;5.480;2023-04-24T04:31:29;99906.06;;;8.48;0.00
76637;BME280;65532;52.124;5.480;2023-04-24T04:33:59;99914.72;;;8.50;0.00
76637;BME280;65532;52.124;5.480;2023-04-24T04:36:30;99919.56;;;8.48;0.00
76637;BME280;65532;52.124;5.480;2023-04-24T04:39:04;99917.91;;;8.47;0.00
76637;BME280;65532;52.124;5.480;2023-04-24T04:41:42;99920.59;;;8.47;0.00
76637;BME280;65532;52.124;5.480;2023-04-24T04:44:09;99921.66;;;8.46;0.00
76637;BME280;65532;52.124;5.480;2023-04-24T04:46:36;99924.13;;;8.48;0.00
76637;BME280;65532;52.124;5.480;2023-04-24T04:49:20;99932.22;;;8.48;0.00
76637;BME280;65532;52.124;5.480;2023-04-24T04:51:47;99932.22;;;8.48;0.00
76637;BME280;65532;52.124;5.480;2023-04-24T04:54:14;99939.25;;;8.49;0.00
76637;BME280;65532;52.124;5.480;2023-04-24T04:56:42;99931.41;;;8.47;0.00
76637;BME280;65532;52.124;5.480;2023-04-24T04:59:09;99936.78;;;8.47;0.00
76637;BME280;65532;52.124;5.480;2023-04-24T05:01:37;99939.25;;;8.49;0.00
76637;BME280;65532;52.124;5.480;2023-04-24T05:04:06;99940.56;;;8.46;0.00
76637;BME280;65532;52.124;5.480;2023-04-24T05:06:33;99945.47;;;8.49;0.00
76637;BME280;65532;52.124;5.480;2023-04-24T05:08:59;99942.53;;;8.51;0.00
76637;BME280;65532;52.124;5.480;2023-04-24T05:11:33;99958.38;;;8.47;0.00
76637;BME280;65532;52.124;5.480;2023-04-24T05:14:01;99959.44;;;8.46;0.00
76637;BME280;65532;52.124;5.480;2023-04-24T05:16:36;99962.13;;;8.46;0.00
76637;BME280;65532;52.124;5.480;2023-04-24T05:19:04;99965.16;;;8.50;0.00
76637;BME280;65532;52.124;5.480;2023-04-24T05:21:35;99958.94;;;8.49;0.00
76637;BME280;65532;52.124;5.480;2023-04-24T05:24:02;99969.75;;;8.49;0.00
76637;BME280;65532;52.124;5.480;2023-04-24T05:26:47;99969.28;;;8.52;0.00
76637;BME280;65532;52.124;5.480;2023-04-24T05:29:18;99976.91;;;8.55;0.00
76637;BME280;65532;52.124;5.480;2023-04-24T05:31:45;99979.00;;;8.53;0.00
76637;BME280;65532;52.124;5.480;2023-04-24T05:34:12;99987.31;;;8.52;0.00
76637;BME280;65532;52.124;5.480;2023-04-24T05:36:42;99992.72;;;8.52;0.00
76637;BME280;65532;52.124;5.480;2023-04-24T05:39:09;100005.38;;;8.51;0.00
76637;BME280;65532;52.124;5.480;2023-04-24T05:41:35;99997.28;;;8.51;0.00
76637;BME280;65532;52.124;5.480;2023-04-24T05:44:02;100002.25;;;8.54;0.00
76637;BME280;65532;52.124;5.480;2023-04-24T05:46:28;100010.09;;;8.56;0.00
76637;BME280;65532;52.124;5.480;2023-04-24T05:48:55;100013.38;;;8.58;0.00
76637;BME280;65532;52.124;5.480;2023-04-24T05:51:22;100017.38;;;8.55;0.00
76637;BME280;65532;52.124;5.480;2023-04-24T05:53:48;100017.38;;;8.55;0.00
76637;BME280;65532;52.124;5.480;2023-04-24T05:56:15;100020.88;;;8.56;0.00
76637;BME280;65532;52.124;5.480;2023-04-24T05:58:42;100033.78;;;8.54;0.00
76637;BME280;65532;52.124;5.480;2023-04-24T06:01:08;100025.94;;;8.52;0.00
76637;BME280;65532;52.124;5.480;2023-04-24T06:03:38;100028.03;;;8.50;0.00
76637;BME280;65532;52.124;5.480;2023-04-24T06:06:06;100041.41;;;8.45;0.00
76637;BME280;65532;52.124;5.480;2023-04-24T06:08:34;100045.16;;;8.44;0.00
76637;BME280;65532;52.124;5.480;2023-04-24T06:11:01;100047.78;;;8.39;0.00
76637;BME280;65532;52.124;5.480;2023-04-24T06:13:30;100042.63;;;8.37;0.00
76637;BME280;65532;52.124;5.480;2023-04-24T06:16:17;100060.69;;;8.37;0.00
76637;BME280;65532;52.124;5.480;2023-04-24T06:18:50;100059.00;;;8.36;0.00
76637;BME280;65532;52.124;5.480;2023-04-24T06:21:17;100071.06;;;8.33;0.00
76637;BME280;65532;52.124;5.480;2023-04-24T06:23:44;100071.78;;;8.29;0.00
76637;BME280;65532;52.124;5.480;2023-04-24T06:26:13;100071.19;;;8.27;0.00
76637;BME280;65532;52.124;5.480;2023-04-24T06:28:40;100084.56;;;8.22;0.00
76637;BME280;65532;52.124;5.480;2023-04-24T06:31:07;100085.00;;;8.19;0.00
76637;BME280;65532;52.124;5.480;2023-04-24T06:33:33;100088.19;;;8.16;0.00
76637;BME280;65532;52.124;5.480;2023-04-24T06:36:00;100098.38;;;8.14;0.00
76637;BME280;65532;52.124;5.480;2023-04-24T06:38:26;100102.59;;;8.09;0.00
76637;BME280;65532;52.124;5.480;2023-04-24T06:40:53;100105.16;;;8.04;0.00
76637;BME280;65532;52.124;5.480;2023-04-24T06:43:19;100103.16;;;8.00;0.00
76637;BME280;65532;52.124;5.480;2023-04-24T06:45:46;100119.81;;;7.97;0.00
76637;BME280;65532;52.124;5.480;2023-04-24T06:48:13;100119.56;;;7.98;0.00
76637;BME280;65532;52.124;5.480;2023-04-24T06:50:39;100126.97;;;8.03;0.00
76637;BME280;65532;52.124;5.480;2023-04-24T06:53:06;100138.34;;;8.05;0.00
76637;BME280;65532;52.124;5.480;2023-04-24T06:55:32;100134.38;;;8.07;0.00
76637;BME280;65532;52.124;5.480;2023-04-24T06:57:59;100150.91;;;8.11;0.00
76637;BME280;65532;52.124;5.480;2023-04-24T07:00:25;100150.66;;;8.13;0.00
76637;BME280;65532;52.124;5.480;2023-04-24T07:02:52;100159.34;;;8.15;0.00
76637;BME280;65532;52.124;5.480;2023-04-24T07:05:18;100168.00;;;8.17;0.00
76637;BME280;65532;52.124;5.480;2023-04-24T07:07:47;100169.88;;;8.16;0.00
76637;BME280;65532;52.124;5.480;2023-04-24T07:10:14;100172.94;;;8.20;0.00
76637;BME280;65532;52.124;5.480;2023-04-24T07:12:40;100185.81;;;8.18;0.00
76637;BME280;65532;52.124;5.480;2023-04-24T07:15:07;100197.06;;;8.15;0.00
76637;BME280;65532;52.124;5.480;2023-04-24T07:17:34;100194.84;;;8.11;0.00
76637;BME280;65532;52.124;5.480;2023-04-24T07:20:01;100198.47;;;8.05;4.80
76637;BME280;65532;52.124;5.480;2023-04-24T07:22:27;100215.09;;;8.02;5.72
76637;BME280;65532;52.124;5.480;2023-04-24T07:24:54;100219.88;;;8.00;7.28
76637;BME280;65532;52.124;5.480;2023-04-24T07:27:20;100225.75;;;7.97;12.61
76637;BME280;65532;52.124;5.480;2023-04-24T07:29:47;100236.16;;;7.94;18.96
76637;BME280;65532;52.124;5.480;2023-04-24T07:32:13;100238.88;;;7.94;17.00
76637;BME280;65532;52.124;5.480;2023-04-24T07:34:40;100243.44;;;7.93;16.16
76637;BME280;65532;52.124;5.480;2023-04-24T07:37:07;100246.59;;;7.90;17.42
76637;BME280;65532;52.124;5.480;2023-04-24T07:39:33;100255.50;;;7.91;14.92
76637;BME280;65532;52.124;5.480;2023-04-24T07:41:59;100263.34;;;7.92;15.38
76637;BME280;65532;52.124;5.480;2023-04-24T07:44:27;100271.44;;;7.92;15.82
76637;BME280;65532;52.124;5.480;2023-04-24T07:46:54;100277.88;;;7.91;19.66
76637;BME280;65532;52.124;5.480;2023-04-24T07:49:21;100280.34;;;7.93;19.94
76637;BME280;65532;52.124;5.480;2023-04-24T07:51:47;100288.44;;;7.93;22.59
76637;BME280;65532;52.124;5.480;2023-04-24T07:54:14;100289.84;;;7.95;21.75
76637;BME280;65532;52.124;5.480;2023-04-24T07:56:40;100293.59;;;7.94;24.40
76637;BME280;65532;52.124;5.480;2023-04-24T07:59:09;100298.97;;;7.94;25.51
76637;BME280;65532;52.124;5.480;2023-04-24T08:01:36;100304.97;;;7.96;22.06
76637;BME280;65532;52.124;5.480;2023-04-24T08:04:03;100303.69;;;7.99;24.32
76637;BME280;65532;52.124;5.480;2023-04-24T08:06:29;100308.84;;;8.00;24.12
76637;BME280;65532;52.124;5.480;2023-04-24T08:08:56;100315.88;;;8.01;26.86
76637;BME280;65532;52.124;5.480;2023-04-24T08:11:24;100327.25;;;8.03;28.25
76637;BME280;65532;52.124;5.480;2023-04-24T08:13:50;100331.81;;;8.03;27.11
76637;BME280;65532;52.124;5.480;2023-04-24T08:16:17;100342.00;;;8.01;26.92
76637;BME280;65532;52.124;5.480;2023-04-24T08:18:44;100355.94;;;7.98;26.26
76637;BME280;65532;52.124;5.480;2023-04-24T08:21:10;100352.66;;;7.96;28.32
76637;BME280;65532;52.124;5.480;2023-04-24T08:23:39;100357.69;;;7.92;28.47
76637;BME280;65532;52.124;5.480;2023-04-24T08:26:05;100360.38;;;7.92;28.95
76637;BME280;65532;52.124;5.480;2023-04-24T08:28:33;100375.97;;;7.90;32.28
76637;BME280;65532;52.124;5.480;2023-04-24T08:30:59;100383.66;;;7.87;37.01
76637;BME280;65532;52.124;5.480;2023-04-24T08:33:26;100394.50;;;7.80;39.02
76637;BME280;65532;52.124;5.480;2023-04-24T08:35:52;100398.94;;;7.74;34.51
76637;BME280;65532;52.124;5.480;2023-04-24T08:38:19;100402.88;;;7.72;31.50
76637;BME280;65532;52.124;5.480;2023-04-24T08:40:46;100400.81;;;7.74;29.70
76637;BME280;65532;52.124;5.480;2023-04-24T08:43:16;100405.97;;;7.75;32.03
76637;BME280;65532;52.124;5.480;2023-04-24T08:45:42;100415.25;;;7.79;35.03
76637;BME280;65532;52.124;5.480;2023-04-24T08:48:09;100415.16;;;7.86;34.29
76637;BME280;65532;52.124;5.480;2023-04-24T08:50:53;100416.53;;;7.95;32.54
76637;BME280;65532;52.124;5.480;2023-04-24T08:53:19;100418.91;;;8.03;32.90
76637;BME280;65532;52.124;5.480;2023-04-24T08:55:47;100431.97;;;8.06;36.02
76637;BME280;65532;52.124;5.480;2023-04-24T08:58:16;100432.69;;;8.14;36.44
76637;BME280;65532;52.124;5.480;2023-04-24T09:00:44;100438.00;;;8.20;40.74
76637;BME280;65532;52.124;5.480;2023-04-24T09:03:16;100437.13;;;8.26;45.40
76637;BME280;65532;52.124;5.480;2023-04-24T09:05:46;100443.34;;;8.27;57.20
76637;BME280;65532;52.124;5.480;2023-04-24T09:08:13;100458.31;;;8.23;70.67
76637;BME280;65532;52.124;5.480;2023-04-24T09:10:40;100456.22;;;8.25;73.21
76637;BME280;65532;52.124;5.480;2023-04-24T09:13:07;100467.84;;;8.25;75.14
76637;BME280;65532;52.124;5.480;2023-04-24T09:15:38;100458.59;;;8.33;76.47
76637;BME280;65532;52.124;5.480;2023-04-24T09:18:05;100467.38;;;8.28;83.27
76637;BME280;65532;52.124;5.480;2023-04-24T09:20:32;100476.50;;;8.27;86.26
76637;BME280;65532;52.124;5.480;2023-04-24T09:22:59;100468.13;;;8.35;86.06
76637;BME280;65532;52.124;5.480;2023-04-24T09:25:32;100484.72;;;8.39;88.41
76637;BME280;65532;52.124;5.480;2023-04-24T09:28:03;100490.84;;;8.46;88.03
76637;BME280;65532;52.124;5.480;2023-04-24T09:30:30;100483.72;;;8.52;88.83
76637;BME280;65532;52.124;5.480;2023-04-24T09:33:15;100486.00;;;8.66;89.47
76637;BME280;65532;52.124;5.480;2023-04-24T09:35:50;100497.47;;;8.80;88.31
76637;BME280;65532;52.124;5.480;2023-04-24T09:38:16;100489.25;;;9.05;88.45
76637;BME280;65532;52.124;5.480;2023-04-24T09:40:43;100494.34;;;9.25;90.06
76637;BME280;65532;52.124;5.480;2023-04-24T09:43:10;100503.91;;;9.51;90.84
76637;BME280;65532;52.124;5.480;2023-04-24T09:45:38;100500.38;;;9.62;91.85
76637;BME280;65532;52.124;5.480;2023-04-24T09:48:09;100499.13;;;9.65;92.14
76637;BME280;65532;52.124;5.480;2023-04-24T09:50:36;100510.16;;;9.75;92.23
76637;BME280;65532;52.124;5.480;2023-04-24T09:53:05;100524.41;;;9.82;92.19
76637;BME280;65532;52.124;5.480;2023-04-24T09:55:39;100518.84;;;9.77;91.82
76637;BME280;65532;52.124;5.480;2023-04-24T09:58:07;100533.28;;;9.59;92.23
76637;BME280;65532;52.124;5.480;2023-04-24T10:00:34;100535.25;;;9.40;91.19
76637;BME280;65532;52.124;5.480;2023-04-24T10:03:02;100533.44;;;9.22;91.42
76637;BME280;65532;52.124;5.480;2023-04-24T10:05:33;100542.69;;;9.15;91.89
76637;BME280;65532;52.124;5.480;2023-04-24T10:08:08;100543.84;;;9.07;90.76
76637;BME280;65532;52.124;5.480;2023-04-24T10:10:42;100550.28;;;9.06;91.61
76637;BME280;65532;52.124;5.480;2023-04-24T10:13:10;100546.34;;;9.20;91.63
76637;BME280;65532;52.124;5.480;2023-04-24T10:15:38;100552.00;;;9.30;91.28
76637;BME280;65532;52.124;5.480;2023-04-24T10:18:05;100556.41;;;9.43;91.24
76637;BME280;65532;52.124;5.480;2023-04-24T10:20:34;100546.34;;;9.50;89.90
76637;BME280;65532;52.124;5.480;2023-04-24T10:23:01;100557.84;;;9.57;90.67
76637;BME280;65532;52.124;5.480;2023-04-24T10:25:30;100548.13;;;9.68;90.22
76637;BME280;65532;52.124;5.480;2023-04-24T10:27:59;100555.19;;;9.69;90.15
76637;BME280;65532;52.124;5.480;2023-04-24T10:30:28;100555.28;;;9.74;90.40
76637;BME280;65532;52.124;5.480;2023-04-24T10:32:55;100564.69;;;9.72;89.77
76637;BME280;65532;52.124;5.480;2023-04-24T10:35:22;100568.56;;;9.76;89.93
76637;BME280;65532;52.124;5.480;2023-04-24T10:37:56;100564.13;;;9.81;89.16
76637;BME280;65532;52.124;5.480;2023-04-24T10:40:27;100564.97;;;10.05;88.93
76637;BME280;65532;52.124;5.480;2023-04-24T10:42:55;100567.09;;;10.15;87.93
76637;BME280;65532;52.124;5.480;2023-04-24T10:45:25;100577.91;;;10.15;85.83
76637;BME280;65532;52.124;5.480;2023-04-24T10:48:02;100578.50;;;10.40;86.86
76637;BME280;65532;52.124;5.480;2023-04-24T10:50:50;100582.94;;;10.70;86.13
76637;BME280;65532;52.124;5.480;2023-04-24T10:53:19;100586.94;;;10.79;84.40
76637;BME280;65532;52.124;5.480;2023-04-24T10:56:02;100589.56;;;10.74;83.79
76637;BME280;65532;52.124;5.480;2023-04-24T10:58:44;100602.06;;;10.40;83.74
76637;BME280;65532;52.124;5.480;2023-04-24T11:01:31;100592.16;;;10.22;84.40
76637;BME280;65532;52.124;5.480;2023-04-24T11:04:01;100596.13;;;10.08;85.29
76637;BME280;65532;52.124;5.480;2023-04-24T11:06:36;100608.38;;;10.10;85.89
76637;BME280;65532;52.124;5.480;2023-04-24T11:09:06;100610.28;;;10.10;86.19
76637;BME280;65532;52.124;5.480;2023-04-24T11:11:35;100598.03;;;9.96;85.81
76637;BME280;65532;52.124;5.480;2023-04-24T11:14:03;100613.28;;;9.78;85.87
76637;BME280;65532;52.124;5.480;2023-04-24T11:16:38;100614.38;;;9.59;86.39
76637;BME280;65532;52.124;5.480;2023-04-24T11:21:46;100634.88;;;9.37;88.01
76637;BME280;65532;52.124;5.480;2023-04-24T11:27:14;100644.47;;;9.14;90.12
76637;BME280;65532;52.124;5.480;2023-04-24T11:29:46;100652.59;;;8.96;90.61
76637;BME280;65532;52.124;5.480;2023-04-24T11:32:17;100652.75;;;9.01;91.43
76637;BME280;65532;52.124;5.480;2023-04-24T11:34:46;100645.00;;;9.23;91.45
76637;BME280;65532;52.124;5.480;2023-04-24T11:37:13;100656.00;;;9.40;91.35
76637;BME280;65532;52.124;5.480;2023-04-24T11:39:40;100651.91;;;9.67;91.05
76637;BME280;65532;52.124;5.480;2023-04-24T11:42:10;100646.25;;;10.10;91.07
76637;BME280;65532;52.124;5.480;2023-04-24T11:44:42;100651.00;;;10.50;90.42
76637;BME280;65532;52.124;5.480;2023-04-24T11:47:09;100647.47;;;10.49;88.86
76637;BME280;65532;52.124;5.480;2023-04-24T11:49:39;100652.78;;;10.33;88.34
76637;BME280;65532;52.124;5.480;2023-04-24T11:52:05;100657.09;;;10.22;88.84
76637;BME280;65532;52.124;5.480;2023-04-24T11:54:32;100656.63;;;10.25;88.59
76637;BME280;65532;52.124;5.480;2023-04-24T11:56:59;100654.28;;;10.40;87.29
76637;BME280;65532;52.124;5.480;2023-04-24T11:59:29;100655.59;;;10.73;87.48
76637;BME280;65532;52.124;5.480;2023-04-24T12:01:56;100667.09;;;11.03;86.24
76637;BME280;65532;52.124;5.480;2023-04-24T12:04:22;100674.47;;;11.20;84.00
76637;BME280;65532;52.124;5.480;2023-04-24T12:07:00;100675.84;;;11.34;82.10
76637;BME280;65532;52.124;5.480;2023-04-24T12:09:26;100677.84;;;11.38;81.56
76637;BME280;65532;52.124;5.480;2023-04-24T12:11:54;100677.72;;;11.45;81.24
76637;BME280;65532;52.124;5.480;2023-04-24T12:14:23;100684.69;;;11.29;80.50
76637;BME280;65532;52.124;5.480;2023-04-24T12:16:50;100687.81;;;11.09;80.48
76637;BME280;65532;52.124;5.480;2023-04-24T12:19:21;100688.06;;;10.85;79.04
76637;BME280;65532;52.124;5.480;2023-04-24T12:22:02;100691.50;;;10.68;79.33
76637;BME280;65532;52.124;5.480;2023-04-24T12:24:29;100693.50;;;10.49;79.93
76637;BME280;65532;52.124;5.480;2023-04-24T12:26:57;100697.16;;;10.43;81.18
76637;BME280;65532;52.124;5.480;2023-04-24T12:29:24;100711.00;;;10.35;80.99
76637;BME280;65532;52.124;5.480;2023-04-24T12:31:51;100716.16;;;10.25;81.71
76637;BME280;65532;52.124;5.480;2023-04-24T12:34:22;100716.34;;;10.12;81.96
76637;BME280;65532;52.124;5.480;2023-04-24T12:36:49;100714.75;;;9.93;80.77
76637;BME280;65532;52.124;5.480;2023-04-24T12:39:20;100713.50;;;10.07;82.02
76637;BME280;65532;52.124;5.480;2023-04-24T12:41:56;100713.72;;;10.35;80.96
76637;BME280;65532;52.124;5.480;2023-04-24T12:44:29;100724.44;;;10.54;81.67
76637;BME280;65532;52.124;5.480;2023-04-24T12:46:57;100722.56;;;10.42;80.37
76637;BME280;65532;52.124;5.480;2023-04-24T12:49:24;100722.47;;;10.19;79.60
76637;BME280;65532;52.124;5.480;2023-04-24T12:51:50;100727.19;;;10.12;79.79
76637;BME280;65532;52.124;5.480;2023-04-24T12:54:16;100733.84;;;10.09;80.17
76637;BME280;65532;52.124;5.480;2023-04-24T12:56:43;100735.94;;;9.96;79.67
76637;BME280;65532;52.124;5.480;2023-04-24T12:59:09;100733.66;;;9.93;79.39
76637;BME280;65532;52.124;5.480;2023-04-24T13:01:36;100741.34;;;9.96;80.24
76637;BME280;65532;52.124;5.480;2023-04-24T13:04:02;100742.47;;;9.88;79.84
76637;BME280;65532;52.124;5.480;2023-04-24T13:06:29;100754.47;;;9.80;80.36
76637;BME280;65532;52.124;5.480;2023-04-24T13:08:55;100761.69;;;9.50;82.14
76637;BME280;65532;52.124;5.480;2023-04-24T13:11:24;100770.41;;;9.34;83.77
76637;BME280;65532;52.124;5.480;2023-04-24T13:13:50;100770.22;;;9.10;85.67
76637;BME280;65532;52.124;5.480;2023-04-24T13:16:20;100774.88;;;9.03;87.94
76637;BME280;65532;52.124;5.480;2023-04-24T13:18:46;100759.97;;;9.19;88.72
76637;BME280;65532;52.124;5.480;2023-04-24T13:21:13;100770.00;;;9.30;88.29